Latest Weather Observations for Murrurundi Gap

IDN60801

Issued at 5:04 am EDT Monday 26 January 2015 (issued every 30 minutes, with the page automatically refreshed every 10 minutes)

About weather observations | Map of weather stations | Latest weather observations for NSW | Other Formats
Station Details ID: 061392 Name: MURRURUNDI GAP AWS Lat: -31.74 Lon: 150.79 Height: 729.4 m
Data from the previous 72 hours. | See also: Recent months for locations in New South Wales
Date/Time
EDT
Temp
°C
App
Temp
°C
Dew
Point
Rel
Hum
%
Delta-T
°C
Wind Press
QNH
hPa
Press
MSL
hPa
Rain
since 9 am
mm
Dir
 
Spd
km/h
Gust
km/h
Spd
kts
Gust
kts
26/04:30am 19.1 16.0 18.3 95 0.5 SE 32 37 17 20 1010.3 1006.0 0.0
26/04:00am 19.0 15.7 18.3 96 0.4 SSE 33 39 18 21 1010.5 1006.3 0.0
26/03:58am 19.0 15.9 18.3 96 0.4 SE 32 39 17 21 1010.5 1006.3 0.0
26/03:30am 19.3 15.9 18.1 93 0.8 SSE 33 41 18 22 1010.4 1006.1 0.0
26/03:00am 19.2 15.7 18.0 93 0.8 SSE 33 41 18 22 1010.3 1006.0 0.0
26/02:30am 19.7 16.2 17.8 89 1.2 SSE 33 44 18 24 1010.1 1005.8 0.0
26/02:00am 20.5 16.8 16.9 80 2.3 SSE 32 46 17 25 1010.3 1006.0 0.0
26/01:30am 22.6 18.2 15.2 63 4.6 SSE 32 41 17 22 1010.3 1006.0 0.0
26/01:00am 23.8 18.1 13.1 51 6.4 SSE 35 44 19 24 1010.3 1006.0 0.0
26/12:30am 24.9 19.3 11.5 43 7.8 SE 32 48 17 26 1010.4 1006.1 0.0
26/12:27am 24.9 19.7 11.5 43 7.8 SE 30 48 16 26 1010.3 1006.0 0.0
26/12:00am 25.3 21.9 12.5 45 7.6 SE 22 32 12 17 1010.6 1006.4 0.0
 
Date/Time
EDT
Temp
°C
App
Temp
°C
Dew
Point
Rel
Hum
%
Delta-T
°C
Wind Press
QNH
hPa
Press
MSL
hPa
Rain
since 9 am
mm
Dir
 
Spd
km/h
Gust
km/h
Spd
kts
Gust
kts
25/11:30pm 24.5 23.3 12.8 48 7.0 ESE 11 15 6 8 1010.5 1006.3 0.0
25/11:00pm 25.1 24.5 13.6 49 7.0 ESE 9 13 5 7 1010.4 1006.1 0.0
25/10:30pm 24.8 24.2 14.6 53 6.3 SE 11 15 6 8 1010.3 1006.0 0.0
25/10:00pm 25.1 24.6 14.8 52 6.4 ESE 11 15 6 8 1009.9 1005.6 0.0
25/09:30pm 25.8 26.3 14.9 51 6.8 SE 6 9 3 5 1009.6 1005.4 0.0
25/09:00pm 26.0 26.0 15.1 51 6.8 SSE 9 17 5 9 1009.5 1005.3 0.0
25/08:30pm 26.6 26.6 15.3 50 7.1 S 9 13 5 7 1009.0 1004.7 0.0
25/08:00pm 26.9 26.9 15.3 49 7.3 SSW 9 11 5 6 1008.7 1004.4 0.0
25/07:30pm 28.0 27.2 15.0 45 8.1 SW 13 19 7 10 1008.5 1004.2 0.0
25/07:00pm 28.4 27.8 14.6 43 8.6 SSW 11 17 6 9 1008.2 1004.0 0.0
25/06:30pm 29.2 28.7 15.0 42 8.9 S 11 17 6 9 1008.0 1003.8 0.0
25/05:30pm 30.3 29.1 14.0 37 10.1 WSW 13 24 7 13 1007.7 1003.4 0.0
25/05:00pm 29.7 27.5 14.3 39 9.6 W 19 26 10 14 1007.5 1003.2 0.0
25/04:30pm 30.1 28.5 15.0 40 9.5 W 17 28 9 15 1007.6 1003.3 0.0
25/04:00pm 30.1 28.1 15.0 40 9.5 W 19 30 10 16 1007.7 1003.4 0.0
25/03:30pm 29.9 28.8 16.3 43 8.7 WNW 17 28 9 15 1008.0 1003.8 0.0
25/03:00pm 28.8 27.8 16.7 48 7.8 WNW 17 28 9 15 1008.1 1003.9 0.0
25/02:30pm 29.0 27.6 16.5 46 8.0 W 19 28 10 15 1008.1 1003.9 0.0
25/02:00pm 28.3 26.4 16.6 49 7.5 W 22 32 12 17 1008.3 1004.1 0.0
25/01:30pm 28.1 26.6 16.4 49 7.5 WNW 19 35 10 19 1008.6 1004.3 0.0
25/01:00pm 27.5 25.9 17.4 54 6.5 W 22 30 12 16 1008.8 1004.5 0.0
25/12:41pm 27.7 24.4 16.0 49 7.4 NW 28 50 15 27 1008.6 1004.3 0.0
25/12:30pm 26.6 23.1 15.6 50 6.9 NW 28 35 15 19 1008.8 1004.5 0.0
25/12:00pm 27.0 22.9 16.0 51 7.0 NW 32 43 17 23 1008.8 1004.5 0.0
25/11:30am 26.3 23.5 16.3 54 6.4 NW 26 37 14 20 1008.8 1004.5 0.0
25/11:00am 25.6 24.2 17.0 59 5.5 NNW 20 30 11 16 1008.8 1004.5 0.0
25/10:30am 24.7 21.8 16.2 59 5.4 NNW 26 33 14 18 1008.9 1004.6 0.0
25/10:00am 23.9 21.6 16.7 64 4.6 NW 24 32 13 17 1009.0 1004.7 0.0
25/09:30am 23.1 21.5 16.6 67 4.1 NW 20 28 11 15 1009.1 1004.8 0.0
25/09:00am 22.4 21.1 16.9 71 3.5 NW 19 22 10 12 1009.2 1005.0 0.0
25/08:30am 21.3 20.4 16.9 76 2.8 NNW 17 20 9 11 1009.2 1005.0 0.0
25/08:00am 20.4 19.1 16.8 80 2.3 NW 19 20 10 11 1009.0 1004.7 0.0
25/07:30am 19.4 18.1 16.8 85 1.6 NW 19 22 10 12 1008.9 1004.6 0.0
25/07:00am 18.2 16.8 16.5 90 1.1 NW 19 20 10 11 1008.5 1004.2 0.0
25/06:00am 18.2 16.8 16.5 90 1.1 NW 19 22 10 12 1007.9 1003.7 0.0
25/05:30am 18.3 17.3 16.5 89 1.1 NW 17 20 9 11 1007.7 1003.4 0.0
25/05:00am 18.4 17.8 16.6 89 1.1 NW 15 17 8 9 1007.5 1003.2 0.0
25/04:30am 18.4 17.8 16.6 89 1.1 WNW 15 17 8 9 1007.3 1003.0 0.0
25/04:00am 17.9 19.0 17.1 95 0.5 ESE 7 9 4 5 1007.5 1003.2 0.0
25/03:30am 17.5 17.0 16.9 96 0.4 ESE 15 20 8 11 1007.5 1003.2 0.0
25/03:00am 17.4 16.0 16.9 97 0.3 SE 20 24 11 13 1007.7 1003.4 0.0
25/02:30am 17.6 15.4 17.0 96 0.4 SSE 24 30 13 16 1008.3 1004.1 0.0
25/02:13am 17.9 14.6 16.9 94 0.6 SE 30 33 16 18 1008.7 1004.4 0.0
25/02:00am 18.1 14.4 16.9 93 0.7 ESE 32 35 17 19 1009.0 1004.7 0.0
25/01:30am 17.8 14.2 17.3 97 0.3 SE 32 39 17 21 1009.5 1005.3 0.0
25/01:00am 18.3 16.0 17.7 96 0.4 SE 26 37 14 20 1010.4 1006.1 0.0
25/12:30am 18.6 15.2 17.8 95 0.5 SE 32 39 17 21 1010.5 1006.3 0.0
25/12:17am 19.1 16.4 17.6 91 0.9 SSE 28 33 15 18 1010.4 1006.1 0.0
25/12:00am 19.3 15.8 17.4 89 1.2 SE 32 50 17 27 1010.0 1005.7 0.0
 
Date/Time
EDT
Temp
°C
App
Temp
°C
Dew
Point
Rel
Hum
%
Delta-T
°C
Wind Press
QNH
hPa
Press
MSL
hPa
Rain
since 9 am
mm
Dir
 
Spd
km/h
Gust
km/h
Spd
kts
Gust
kts
24/11:59pm 19.3 16.2 17.4 89 1.2 SE 30 48 16 26 1010.0 1005.7 0.0
24/11:30pm 19.4 15.9 17.5 89 1.2 SSE 32 44 17 24 1010.1 1005.8 0.0
24/11:00pm 19.9 17.0 18.0 89 1.2 SSE 30 46 16 25 1009.9 1005.6 0.0
24/10:30pm 22.3 20.6 17.2 73 3.2 ESE 22 32 12 17 1009.2 1005.0 0.0
24/10:00pm 22.7 21.8 16.9 70 3.7 ESE 17 22 9 12 1008.8 1004.5 0.0
24/09:30pm 22.9 23.5 16.9 69 3.8 SE 9 17 5 9 1008.6 1004.3 0.0
24/09:00pm 24.7 24.7 16.2 59 5.4 E 11 17 6 9 1008.3 1004.1 0.0
24/08:31pm 24.1 21.2 17.1 65 4.5 NE 28 46 15 25 1007.9 1003.7 0.0
24/08:30pm 24.1 20.5 17.1 65 4.5 NNE 32 46 17 25 1007.9 1003.7 0.0
24/08:24pm 23.4 20.2 16.2 64 4.5 NNE 28 46 15 25 1007.9 1003.7 0.0
24/08:22pm 24.2 20.8 15.7 59 5.3 NNE 28 39 15 21 1007.8 1003.5 0.0
24/08:00pm 26.5 26.2 15.5 50 6.9 ENE 11 19 6 10 1007.3 1003.0 0.0
24/07:30pm 26.7 26.4 15.4 50 7.1 S 11 13 6 7 1007.1 1002.8 0.0
24/07:00pm 27.5 27.7 15.8 48 7.4 WSW 9 11 5 6 1006.7 1002.5 0.0
24/06:30pm 28.1 28.8 16.1 48 7.6 SSW 7 9 4 5 1006.5 1002.2 0.0
24/06:00pm 27.9 28.0 15.5 46 7.8 SSW 9 13 5 7 1006.5 1002.2 0.0
24/05:30pm 29.5 30.0 15.6 43 8.8 SE 7 15 4 8 1006.6 1002.3 0.0
24/05:00pm 29.4 28.7 15.5 43 8.8 SSE 13 20 7 11 1006.8 1002.6 0.0
24/04:30pm 29.4 29.5 14.0 39 9.5 SSW 6 13 3 7 1007.5 1003.2 0.0
24/04:00pm 29.4 29.4 15.1 41 9.0 SSW 9 13 5 7 1008.0 1003.8 0.0
24/03:30pm 28.9 27.9 16.5 47 8.0 SSE 17 28 9 15 1008.3 1004.1 0.0
24/03:00pm 28.0 27.9 16.0 48 7.6 S 11 20 6 11 1009.0 1004.7 0.0
24/02:30pm 26.7 25.9 15.1 49 7.2 ESE 13 22 7 12 1009.2 1005.0 0.0
24/02:00pm 28.2 28.7 18.3 55 6.5 SE 13 26 7 14 1009.5 1005.3 0.0
24/01:30pm 27.2 27.5 17.1 54 6.5 S 11 20 6 11 1009.7 1005.5 0.0
24/01:00pm 27.1 27.9 17.3 55 6.3 SSE 9 19 5 10 1010.3 1006.0 0.0
24/12:30pm 27.1 27.7 18.7 60 5.5 E 13 20 7 11 1010.4 1006.1 0.0
24/12:00pm 25.8 26.6 17.2 59 5.5 SE 9 17 5 9 1010.9 1006.7 0.0
24/11:30am 25.9 26.0 17.5 59 5.4 SSE 13 19 7 10 1011.2 1007.0 0.0
24/11:00am 25.7 26.6 18.4 64 4.8 E 11 20 6 11 1011.4 1007.1 0.0
24/10:30am 25.8 27.8 19.2 67 4.4 SE 7 15 4 8 1011.5 1007.2 0.0
24/10:00am 25.0 25.3 18.0 65 4.5 E 13 19 7 10 1011.6 1007.3 0.0
24/09:30am 23.7 24.4 16.2 63 4.7 ENE 7 15 4 8 1011.6 1007.3 0.0
24/09:00am 22.0 22.5 16.5 71 3.5 NNW 9 13 5 7 1011.6 1007.3 1.6
24/08:30am 21.2 20.8 16.2 73 3.1 NNW 13 17 7 9 1011.5 1007.2 1.6
24/08:00am 20.3 20.4 16.5 79 2.4 NW 11 15 6 8 1011.2 1007.0 1.6
24/07:30am 19.7 19.3 16.2 80 2.2 NW 13 13 7 7 1010.9 1006.7 1.6
24/07:00am 19.3 19.7 15.4 78 2.4 WNW 7 11 4 6 1010.7 1006.5 1.6
24/06:30am 19.6 21.1 15.7 78 2.4 W 2 6 1 3 1010.5 1006.3 1.6
24/06:00am 19.2 19.8 15.9 81 2.0 WNW 7 9 4 5 1010.4 1006.1 1.6
24/05:30am 18.6 18.4 15.8 84 1.7 WNW 11 13 6 7 1010.2 1005.9 1.6
24/05:00am 18.4 17.9 16.0 86 1.5 NNW 13 15 7 8 1010.2 1005.9 1.6
24/04:30am 18.6 17.4 16.2 86 1.5 WNW 17 20 9 11 1010.0 1005.7 1.6
24/04:00am 18.4 16.9 16.2 87 1.4 NW 19 22 10 12 1009.9 1005.6 1.6
24/03:30am 18.8 18.0 16.2 85 1.6 NW 15 19 8 10 1009.9 1005.6 1.6
24/03:00am 19.4 19.4 16.2 82 2.0 NW 11 13 6 7 1010.0 1005.7 1.6
24/02:30am 19.9 19.5 16.3 80 2.2 WNW 13 15 7 8 1010.3 1006.0 1.6
24/02:00am 19.8 19.4 16.3 80 2.2 NW 13 17 7 9 1010.7 1006.5 1.6
24/01:30am 20.3 18.7 16.1 77 2.6 NW 19 22 10 12 1010.9 1006.7 1.6
24/01:00am 20.4 19.5 15.8 75 2.8 NW 15 17 8 9 1011.2 1007.0 1.6
24/12:30am 20.6 20.1 15.8 74 3.0 NW 13 17 7 9 1011.5 1007.2 1.6
24/12:00am 21.1 21.4 15.9 72 3.2 WNW 9 11 5 6 1011.5 1007.2 1.6
 
Date/Time
EDT
Temp
°C
App
Temp
°C
Dew
Point
Rel
Hum
%
Delta-T
°C
Wind Press
QNH
hPa
Press
MSL
hPa
Rain
since 9 am
mm
Dir
 
Spd
km/h
Gust
km/h
Spd
kts
Gust
kts
23/11:30pm 21.0 23.1 16.2 74 3.0 CALM 0 0 0 0 1011.6 1007.3 1.6
23/11:00pm 21.1 23.3 16.5 75 2.9 CALM 0 0 0 0 1011.5 1007.2 1.6
23/10:30pm 21.0 22.1 16.6 76 2.8 E 6 7 3 4 1011.2 1007.0 1.6
23/10:00pm 20.5 21.5 16.9 80 2.3 E 7 9 4 5 1011.1 1006.9 1.6
23/09:30pm 19.8 21.1 17.6 87 1.4 E 7 9 4 5 1011.0 1006.8 1.6
23/09:00pm 19.5 20.8 18.5 94 0.6 SE 9 11 5 6 1011.0 1006.8 1.6
23/08:30pm 19.7 21.2 18.0 90 1.1 ESE 7 11 4 6 1010.6 1006.4 1.6
23/08:00pm 20.5 22.3 18.4 88 1.4 NW 6 9 3 5 1010.4 1006.1 1.6
23/07:30pm 20.1 22.0 18.9 93 0.8 SE 7 11 4 6 1010.5 1006.3 1.6
23/07:00pm 20.8 22.8 18.7 88 1.4 ESE 6 9 3 5 1010.5 1006.3 1.2
23/06:57pm 21.0 23.0 18.8 87 1.4 ESE 6 9 3 5 1010.4 1006.1 1.2
23/06:47pm 21.0 22.4 17.8 82 2.0 SE 7 13 4 7 1010.6 1006.4 0.8
23/06:30pm 22.1 21.6 17.7 76 2.8 W 17 20 9 11 1010.6 1006.4 0.0
23/06:00pm 22.9 21.8 16.4 67 4.1 NNE 17 28 9 15 1010.3 1006.0 0.0
23/05:30pm 22.3 19.6 15.6 66 4.1 NNE 24 32 13 17 1010.5 1006.3 0.0
23/05:00pm 22.8 20.2 15.9 65 4.3 NNE 24 41 13 22 1010.7 1006.5 0.0
23/04:30pm 24.9 24.7 16.6 60 5.3 ESE 13 17 7 9 1010.6 1006.4 0.0
23/04:00pm 24.9 24.6 17.4 63 4.8 SE 15 19 8 10 1010.7 1006.5 0.0
23/03:30pm 25.1 24.8 18.3 66 4.4 SSE 17 20 9 11 1011.0 1006.8 0.0
23/03:00pm 24.3 23.0 17.3 65 4.5 SSE 20 26 11 14 1010.9 1006.7 0.0
23/02:30pm 23.4 21.5 16.7 66 4.2 S 22 37 12 20 1011.2 1007.0 0.0
23/02:00pm 25.5 26.3 18.2 64 4.8 NE 11 17 6 9 1011.7 1007.5 0.0
23/01:30pm 23.2 22.3 18.3 74 3.2 NNE 20 28 11 15 1011.9 1007.7 0.0
23/01:00pm 24.4 24.5 17.4 65 4.5 N 13 22 7 12 1012.1 1007.9 0.0
23/12:30pm 24.8 24.8 17.3 63 4.8 NNW 13 17 7 9 1012.5 1008.3 0.0
23/12:00pm 23.2 22.4 17.0 68 3.9 N 17 20 9 11 1012.9 1008.6 0.0
23/11:30am 22.9 22.7 16.7 68 3.9 NNW 13 19 7 10 1013.0 1008.8 0.0
23/11:00am 23.1 21.9 16.2 65 4.3 NNW 17 24 9 13 1013.2 1009.0 0.0
23/10:30am 23.0 22.3 16.5 67 4.1 NW 15 20 8 11 1013.4 1009.2 0.0
23/10:00am 22.6 23.7 17.1 71 3.5 NW 7 13 4 7 1013.5 1009.3 0.0
23/09:30am 21.3 22.5 18.3 83 1.9 ESE 9 9 5 5 1013.6 1009.4 0.0
23/09:00am 20.6 20.9 17.8 84 1.8 ESE 13 15 7 8 1013.7 1009.5 0.0
23/08:30am 20.3 20.0 17.3 83 1.9 ESE 15 19 8 10 1013.6 1009.4 0.0
23/08:00am 20.9 21.2 17.9 83 1.9 ESE 13 17 7 9 1013.5 1009.3 0.0
23/07:30am 19.7 20.0 17.1 85 1.6 ESE 11 13 6 7 1013.1 1008.9 0.0
23/07:00am 19.6 20.9 17.6 88 1.3 ESE 7 9 4 5 1012.7 1008.5 0.0
23/06:30am 18.0 18.8 17.4 96 0.4 ESE 9 13 5 7 1012.5 1008.3 0.0
23/06:00am 18.0 19.1 17.2 95 0.5 ESE 7 9 4 5 1012.3 1008.1 0.0
23/05:30am 18.4 19.5 17.2 93 0.8 SE 7 7 4 4 1012.2 1008.0 0.0

Other Formats:

Comma delimited format used in spreadsheet applications
http://www.bom.gov.au/fwo/IDN60801/IDN60801.95747.axf

JavaScript Object Notation format (JSON) in row-major order
http://www.bom.gov.au/fwo/IDN60801/IDN60801.95747.json